EDDMLPMA

Guest
Details From EDDM - Muenchen Franz-josef Strauss
To LPMA - Madeira
Flight Number -
Tags Generated
Created
Modified
Stats Distance 1,591 nm / 2,947 km
Max Altitude 0 ft / 0 m
Waypoints 8
Social Downloads 1
Likes 0
Share VATSIM

Download

Looking for another format? Having issues loading an existing format? Contact us
Advertisement - Login to hide

Notes

Generated

Route

EDDM TELNO GAI53 LPA RIDAV GANSU MAD LPMA

ID Type Via Altitude Latitude Longitude Leg Dist Tot Dist Heading (true) Name
O EDDM APT - 0 ft / 0 m 48.34069˚ 11.75108˚ - 0 nm - -
TELNO FIX - 0 ft / 0 m 46.77194˚ 7.27083˚ 204 nm 204 nm 244° / 241° -
GAI53 FIX - 0 ft / 0 m 44.74361˚ 2.39333˚ 237 nm 442 nm 241° / 237° -
LPA VOR - 0 ft / 0 m 42.46054˚ -2.32691˚ 246 nm 689 nm 238° / 235° LOGRONO VOR-DME
RIDAV FIX - 0 ft / 0 m 40.53524˚ -5.80829˚ 194 nm 883 nm 235° / 232° -
GANSU FIX - 0 ft / 0 m 38.00000˚ -9.81750˚ 240 nm 1124 nm 232° / 230° -
MAD NDB - 0 ft / 0 m 32.74813˚ -16.70651˚ 461 nm 1586 nm 229° / 225° MADEIRA NDB
O LPMA APT - 0 ft / 0 m 32.68900˚ -16.78409˚ 5 nm 1591 nm 228° / 228° -

Altitude Profile

Advertisement - Login to hide

Weather


0- 5 10 15 20 25 30 35+ Temperature / ° C

Clouds and Precipitation
Forecast for 2018-05-27 06:00 UTC. Updated 25 minutes ago

Ground ~20,000 ft ~40,000 ft Winds

EDDM

Details ICAO EDDM (MUC)
Name Muenchen Franz-Josef Strauss
Region Germany - Civil
Timezone Europe/Berlin (UTC+2.0)
Stats Elevation 1,487 ft / 453 m (AMSL)
Location 48.353786° 11.786117°
Runways 2
Magnetic Variation 3.216° E

METAR

EDDM 270520Z VRB02KT CAVOK 15/14 Q1020 NOSIG

Decode

TAF

TAF EDDM 262300Z 2700/2806 07004KT CAVOK

Decode

Departure Runways

ID Width Length Bearing (true) Bearing (mag) Surface Threshold Offset Overrun Length
08L 197 ft / 60 m 13,086 ft / 3,989 m 83.38° 80.16° Concrete 0 ft / 0 m 0 ft / 0 m
08R 197 ft / 60 m 13,086 ft / 3,989 m 83.37° 80.15° Concrete 0 ft / 0 m 0 ft / 0 m
26L 197 ft / 60 m 13,086 ft / 3,989 m 263.41° 260.19° Concrete 0 ft / 0 m 0 ft / 0 m
26R 197 ft / 60 m 13,086 ft / 3,989 m 263.42° 260.20° Concrete 0 ft / 0 m 0 ft / 0 m

LPMA

Details ICAO LPMA (FNC)
Name Madeira
Region Portugal
Timezone Atlantic/Madeira (UTC+1.0)
Stats Elevation 192 ft / 59 m (AMSL)
Location 32.697704° -16.774449°
Runways 1
Magnetic Variation 4.926° W

METAR

LPMA 270530Z 34007KT 290V040 9999 FEW016 16/09 Q1020

Decode

TAF

TAF LPMA 262300Z 2700/2724 36010KT 9999 SCT016 SCT030 TEMPO 2700/2708 BKN015 PROB30 TEMPO 2708/2718 36015G25KT

Decode

Destination Runways

ID Width Length Bearing (true) Bearing (mag) Surface Threshold Offset Overrun Length
05 141 ft / 43 m 8,683 ft / 2,647 m 42.98° 47.91° Asphalt 472 ft / 144 m 0 ft / 0 m
23 141 ft / 43 m 8,683 ft / 2,647 m 222.99° 227.92° Asphalt 466 ft / 142 m 0 ft / 0 m

Popular Alternatives